Station RIXA2 - Rocky Island, AK Image indicating link to RSS feed of recent meteorological observations for station RIXA2


Conditions at RIXA2 as of
(10:02 am AKDT)
1802 GMT on 06/16/2024:
     

Click on the graph icon in the table below to see a time series plot of the last five days of that observation.

5-day plot - Wind Direction Wind Direction (WDIR): NW ( 320 deg true )
5-day plot - Wind Speed Wind Speed (WSPD): 17 kts
5-day plot - Wind Gust Wind Gust (GST): 21 kts
5-day plot - Air Temperature Air Temperature (ATMP): 51.6 °F
5-day plot - Dew Point Dew Point (DEWP): 46.9 °F
5-day plot - Wind Chill Wind Chill (CHILL): 45.9 °F
5-day plot - Wind Speed at 10 Meters Wind Speed at 10 meters (WSPD10M): 19 kts
5-day plot - Wind Speed at 20 Meters Wind Speed at 20 meters (WSPD20M): 21 kts
5-day plot -  Wind Speed, Wind Gust and Atmospheric Pressure Combined plot of Wind Speed, Gust, and Air Pressure
Previous observations
TIME
(AKDT)
5-day plot - Wind Direction
WDIR
 
5-day plot - Wind Speed
WSPD
kts
5-day plot - Wind Gust
GST
kts
5-day plot - Wave Height
WVHT
ft
5-day plot - Dominant Wave Period
DPD
sec
5-day plot - Average Wave Period
APD
sec
5-day plot - Mean Wave Direction
MWD
 
5-day plot - Atmospheric Pressure
PRES
in
5-day plot - Pressure Tendency
PTDY
in
5-day plot - Air Temperature
ATMP
°F
5-day plot - Water Temperature
WTMP
°F
5-day plot - Dew Point
DEWP
°F
5-day plot - Salinity
SAL
psu
5-day plot - Visibility
VIS
nmi
5-day plot - Tide (above MLLW)
TIDE
ft
2024-06-16 09:52 am NW 18 22------ 51.6- 46.9---
2024-06-16 09:42 amWNW 17 21------ 51.4- 46.8---
2024-06-16 09:32 am NW 17 20------ 51.4- 46.8---
2024-06-16 09:22 am NW 16 19------ 51.1- 46.8---
2024-06-16 09:12 amWNW 12 16------ 50.9- 46.9---
2024-06-16 09:03 amWNW 13 16------ 50.9- 46.6---
2024-06-16 08:52 amWNW 16 20------ 50.9- 46.6---
2024-06-16 08:43 am NW 17 21------ 51.1- 46.8---
2024-06-16 08:33 am NW 18 21------ 51.1- 46.8---
2024-06-16 08:22 am NW 19 22------ 50.9- 46.6---
2024-06-16 08:12 am NW 19 23------ 50.9- 46.8---
2024-06-16 08:02 am NW 17 22------ 50.7- 46.8---
2024-06-16 07:52 am NW 17 21------ 50.9- 46.6---
2024-06-16 07:42 am NW 18 21------ 50.9- 46.6---
2024-06-16 07:32 am NW 18 21------ 51.1- 46.8---
2024-06-16 07:22 am NW 18 22------ 51.3- 46.6---
2024-06-16 07:12 am NW 20 23------ 51.1- 46.6---
2024-06-16 07:02 am NW 20 24------ 50.9- 46.6---
2024-06-16 06:52 am NW 21 24------ 50.7- 46.6---
2024-06-16 06:42 am NW 20 24------ 50.5- 46.6---
2024-06-16 06:32 am NW 20 24------ 50.7- 46.6---
2024-06-16 06:22 am NW 22 26------ 51.1- 46.6---
2024-06-16 06:12 am NW 22 27------ 51.3- 46.8---
2024-06-16 06:02 am NW 20 25------ 50.9- 46.8---
2024-06-16 05:52 am NW 19 23------ 50.9- 46.9---
2024-06-16 05:43 am NW 20 24------ 50.7- 46.8---
2024-06-16 05:32 am NW 18 23------ 51.1- 46.8---
2024-06-16 05:22 amNNW 16 19------ 51.8- 46.8---
2024-06-16 05:12 am NW 17 21------ 51.6- 46.9---
2024-06-16 05:02 am NW 19 22------ 51.4- 46.9---
2024-06-16 04:52 am NW 16 19------ 51.1- 46.8---
2024-06-16 04:43 am NW 14 18------ 51.4- 46.8---
2024-06-16 04:32 am NW 13 15------ 52.0- 47.1---
2024-06-16 04:22 am NW 13 16------ 51.6- 46.9---
2024-06-16 04:13 am NW 15 18------ 51.8- 47.1---
2024-06-16 04:02 am NW 15 19------ 52.2- 47.1---
2024-06-16 03:52 am NW 18 22------ 52.0- 47.1---
2024-06-16 03:43 am NW 18 21------ 52.0- 47.1---
2024-06-16 03:22 am N 16 20------ 52.3- 47.3---
2024-06-16 03:12 amNNW 18 21------ 52.5- 47.5---
2024-06-16 03:02 am NW 14 17------ 52.2- 47.5---
2024-06-16 02:52 am NW 14 18------ 52.5- 47.3---
2024-06-16 02:42 am NW 14 19------ 52.9- 47.7---
2024-06-16 02:32 am NW 16 21------ 52.7- 47.7---
2024-06-16 02:22 am NW 15 19------ 52.7- 47.5---
2024-06-16 02:12 am NW 10 17------ 53.1- 47.7---
2024-06-16 01:52 amWNW 2 5------ 53.2- 48.2---
2024-06-16 01:42 amNNW 2 3------ 53.6- 48.0---
2024-06-16 01:32 am NE 3 4------ 54.1- 48.4---
2024-06-16 01:22 am NE 2 4------ 54.5- 48.4---
2024-06-16 01:12 am NW 2 4------ 54.5- 48.4---
2024-06-16 01:02 amNNW 3 4------ 54.7- 48.4---
2024-06-16 12:52 am N 6 8------ 55.2- 48.2---
2024-06-16 12:42 am NW 6 8------ 54.9- 48.4---
2024-06-16 12:32 amNNW 3 5------ 54.7- 48.6---
2024-06-16 12:23 am N 3 4------ 54.9- 48.7---
2024-06-16 12:13 amENE 3 4------ 54.9- 48.9---
2024-06-16 12:02 am NE 5 13------ 55.2- 48.7---
2024-06-15 11:52 pm N 8 13------ 55.4- 48.6---
2024-06-15 11:42 pmNNW 13 16------ 55.0- 48.4---
2024-06-15 11:32 pmNNW 13 17------ 55.4- 48.4---
2024-06-15 11:22 pm NW 14 19------ 55.8- 48.6---
2024-06-15 11:12 pm NW 13 16------ 56.1- 48.7---
2024-06-15 11:02 pm NW 16 19------ 55.0- 48.6---
2024-06-15 10:52 pm NW 15 19------ 55.0- 48.6---
2024-06-15 10:42 pmNNW 14 16------ 55.6- 48.7---
2024-06-15 10:32 pmNNW 15 18------ 56.1- 48.7---
2024-06-15 10:22 pmNNW 17 22------ 56.7- 48.7---
2024-06-15 10:12 pmNNW 20 25------ 56.7- 48.7---
2024-06-15 10:02 pm NW 21 24------ 56.1- 48.7---
2024-06-15 09:52 pmNNW 19 23------ 55.9- 48.7---
2024-06-15 09:42 pmNNW 16 18------ 55.8- 48.7---
2024-06-15 09:32 pmNNW 17 20------ 55.6- 48.7---
2024-06-15 09:22 pmNNW 15 18------ 56.5- 48.7---
2024-06-15 09:12 pmNNW 17 20------ 57.2- 49.1---
2024-06-15 09:02 pmNNW 18 22------ 56.5- 48.9---
2024-06-15 08:52 pmNNW 16 20------ 56.5- 49.1---
2024-06-15 08:42 pmNNW 14 18------ 56.3- 49.1---
2024-06-15 08:33 pmNNW 15 19------ 56.3- 49.1---
2024-06-15 08:22 pmNNW 20 23------ 56.7- 48.9---
2024-06-15 08:12 pm NW 20 24------ 57.0- 48.9---
2024-06-15 08:02 pm NW 19 22------ 56.8- 48.9---
2024-06-15 07:52 pm NW 19 22------ 56.1- 48.9---
2024-06-15 07:42 pmNNW 14 20------ 56.3- 48.9---
2024-06-15 07:32 pmNNW 14 18------ 56.7- 49.1---
2024-06-15 07:22 pmNNW 16 20------ 56.5- 48.9---
2024-06-15 07:12 pm NW 18 22------ 56.3- 48.7---
2024-06-15 07:03 pm NW 20 23------ 56.3- 48.7---
2024-06-15 06:52 pm NW 20 23------ 56.5- 48.7---
2024-06-15 06:42 pm NW 19 23------ 56.5- 48.7---
2024-06-15 06:32 pm NW 19 22------ 56.8- 48.7---
2024-06-15 06:22 pm NW 19 22------ 56.7- 48.7---
2024-06-15 06:12 pm NW 16 21------ 56.3- 48.6---
2024-06-15 06:02 pm NW 16 20------ 55.9- 48.7---
2024-06-15 05:52 pm NW 15 17------ 55.9- 48.9---
2024-06-15 05:42 pmNNW 16 21------ 55.9- 48.6---
2024-06-15 05:32 pmNNW 15 20------ 55.9- 48.7---
2024-06-15 05:22 pmNNW 12 15------ 55.4- 48.7---
2024-06-15 05:12 pmNNW 11 21------ 55.2- 48.6---
2024-06-15 05:02 pmNNW 12 19------ 55.0- 48.6---
2024-06-15 04:52 pmNNW 12 16------ 55.0- 48.6---
2024-06-15 04:43 pmNNW 12 17------ 55.0- 48.4---
2024-06-15 04:32 pmNNW 13 18------ 55.0- 48.2---
2024-06-15 04:22 pmNNW 12 18------ 55.4- 48.2---
2024-06-15 04:12 pmNNW 12 19------ 55.0- 48.2---
2024-06-15 03:52 pmNNW 13 16------ 54.5- 48.0---
2024-06-15 03:42 pm NW 13 16------ 54.0- 47.8---
2024-06-15 03:32 pm NW 12 15------ 54.0- 47.8---
2024-06-15 03:22 pm NW 14 17------ 54.0- 47.8---
2024-06-15 03:13 pm NW 13 16------ 53.6- 47.8---
2024-06-15 03:12 pm NW 13 16------ 53.6- 47.8---
2024-06-15 02:52 pm NW 14 16------ 54.0- 47.5---
2024-06-15 02:43 pm NW 13 16------ 54.0- 47.3---
2024-06-15 02:32 pm NW 10 13------ 53.4- 47.5---
2024-06-15 02:12 pm NW 13 16------ 53.2- 46.9---
2024-06-15 02:02 pm NW 12 15------ 53.2- 47.1---
2024-06-15 01:52 pm NW 12 14------ 53.2- 46.9---
2024-06-15 01:42 pm NW 11 13------ 53.1- 46.9---
2024-06-15 01:32 pm NW 10 12------ 52.9- 46.9---
2024-06-15 01:22 pm NW 11 12------ 52.7- 46.4---
2024-06-15 01:12 pm NW 10 11------ 52.5- 46.4---
2024-06-15 01:03 pm NW 8 9------ 52.2- 46.6---
2024-06-15 12:52 pm NW 9 11------ 52.2- 46.6---
2024-06-15 12:42 pm NW 8 10------ 51.8- 46.4---
2024-06-15 12:32 pm NW 8 10------ 51.6- 46.2---
2024-06-15 12:22 pm NW 8 10------ 51.6- 46.2---
2024-06-15 12:12 pm NW 9 10------ 51.4- 46.0---
2024-06-15 12:02 pm NW 10 12------ 51.1- 45.9---
2024-06-15 11:52 am NW 10 12------ 50.9- 45.9---
2024-06-15 11:42 am NW 11 14------ 50.9- 45.9---
2024-06-15 11:32 am NW 11 13------ 50.7- 45.7---
2024-06-15 11:22 am NW 11 13------ 50.7- 45.7---
2024-06-15 11:12 am NW 12 14------ 50.5- 45.5---
2024-06-15 11:02 am NW 12 15------ 50.5- 45.5---
2024-06-15 10:53 am NW 12 14------ 50.2- 45.3---
2024-06-15 10:42 am NW 12 15------ 50.0- 45.3---
2024-06-15 10:32 am NW 12 13------ 49.6- 45.1---
2024-06-15 10:22 am NW 12 14------ 49.5- 45.0---
2024-06-15 10:12 am NW 11 14------ 49.5- 45.1---
2024-06-15 10:02 am NW 11 14------ 49.5- 45.0---
2024-06-15 09:52 am NW 12 14------ 49.3- 44.8---